KLIT/LIT METAR and TAF weather

Enter ICAO airport designator
Station Type Date Time Source
KLIT METAR 2020/01/23 18:06 UTC NOAA

KLIT 231806Z 00000KT 2 1/2SM -RA BR FEW003 OVC005 04/03 A2997 RMK AO2 DZE06RAB06 P0000 T00440033


Station Type Date Time Source
KLIT Decoded METAR 2020/01/23 18:06 UTC NOAA

LITTLE ROCK ADAMS FIELD, AR, United States (KLIT) 34-44N 92-14W 79M
Jan 23, 2020 - 01:06 PM EST / 2020.01.23 1806 UTC
Wind: Calm:0
Visibility: 2 1/2 mile(s):0
Sky conditions: overcast
Weather: light rain; mist
Precipitation last hour: A trace
Temperature: 39.9 F (4.4 C)
Dew Point: 37.9 F (3.3 C)
Relative Humidity: 92%
Pressure (altimeter): 29.97 in. Hg (1014 hPa)
ob: KLIT 231806Z 00000KT 2 1/2SM -RA BR FEW003 OVC005 04/03 A2997 RMK AO2 DZE06RAB06 P0000 T00440033
cycle: 18

Station Type Date Time Source
KLIT TAF 2020/01/23 18:42 UTC NOAA

TAF KLIT 231739Z 2318/2418 VRB05KT 3SM -DZ BR OVC005
TEMPO 2318/2322 2SM BR OVC003
FM232200 VRB06KT 4SM BR BKN010 OVC020
FM240400 27006KT P6SM BKN020 OVC040
FM241200 28009KT P6SM OVC025

Example: see airport list